createdAt,value
2018-08-18T00:00:21.420Z,19.05
2018-08-18T00:02:50.357Z,19.02
2018-08-18T00:05:19.574Z,19.05
2018-08-18T00:07:48.861Z,19.06
2018-08-18T00:10:22.427Z,18.98
2018-08-18T00:12:51.600Z,18.82
2018-08-18T00:15:21.211Z,18.81
2018-08-18T00:17:50.129Z,18.73
2018-08-18T00:20:21.233Z,18.78
2018-08-18T00:22:50.270Z,18.86
2018-08-18T00:25:19.272Z,18.85
2018-08-18T00:27:49.712Z,18.83
2018-08-18T00:30:23.896Z,18.83
2018-08-18T00:32:54.132Z,18.74
2018-08-18T00:35:23.357Z,18.73
2018-08-18T00:37:52.625Z,18.68
2018-08-18T00:40:22.564Z,18.78
2018-08-18T00:42:51.757Z,18.78
2018-08-18T00:45:20.849Z,18.84
2018-08-18T00:47:51.228Z,18.76
2018-08-18T00:50:34.104Z,18.62
2018-08-18T00:53:03.732Z,18.56
2018-08-18T00:55:32.788Z,18.48
2018-08-18T00:58:01.667Z,18.48
2018-08-18T01:00:30.725Z,18.49
2018-08-18T01:03:00.930Z,18.45
2018-08-18T01:05:30.009Z,18.38
2018-08-18T01:07:59.139Z,18.41
2018-08-18T01:10:29.059Z,18.48
2018-08-18T01:12:58.771Z,18.38
2018-08-18T01:15:29.353Z,18.21
2018-08-18T01:17:58.765Z,18.08
2018-08-18T01:20:27.728Z,18.02
2018-08-18T01:23:00.242Z,17.97
2018-08-18T01:25:30.043Z,18.00
2018-08-18T01:27:59.946Z,18.03
2018-08-18T01:30:29.152Z,18.02
2018-08-18T01:32:58.155Z,18.08
2018-08-18T01:35:27.069Z,18.17
2018-08-18T01:37:55.958Z,18.20
2018-08-18T01:40:25.021Z,18.26
2018-08-18T01:42:53.822Z,18.37
2018-08-18T01:45:23.314Z,18.41
2018-08-18T01:47:52.337Z,18.34
2018-08-18T01:50:21.517Z,18.21
2018-08-18T01:52:50.846Z,18.17
2018-08-18T01:55:19.915Z,18.27
2018-08-18T01:57:49.327Z,18.18
2018-08-18T02:00:26.630Z,18.01
2018-08-18T02:02:55.606Z,17.94
2018-08-18T02:05:24.909Z,17.84
2018-08-18T02:07:54.755Z,17.82
2018-08-18T02:10:23.624Z,17.80
2018-08-18T02:13:02.400Z,17.75
2018-08-18T02:15:31.919Z,17.79
2018-08-18T02:18:00.848Z,17.89
2018-08-18T02:20:30.361Z,17.92
2018-08-18T02:22:59.794Z,17.78
2018-08-18T02:25:28.547Z,17.77
2018-08-18T02:27:57.627Z,17.85
2018-08-18T02:30:26.526Z,17.90
2018-08-18T02:32:55.503Z,17.87
2018-08-18T02:35:24.986Z,17.76
2018-08-18T02:37:54.124Z,17.80
2018-08-18T02:40:23.627Z,17.75
2018-08-18T02:42:52.783Z,17.65
2018-08-18T02:45:21.743Z,17.57
2018-08-18T02:48:04.335Z,17.50
2018-08-18T02:50:33.590Z,17.54
2018-08-18T02:53:07.094Z,17.48
2018-08-18T02:55:35.805Z,17.46
2018-08-18T02:58:04.542Z,17.46
2018-08-18T03:00:35.395Z,17.54
2018-08-18T03:03:04.867Z,17.63
2018-08-18T03:05:35.474Z,17.64
2018-08-18T03:08:04.710Z,17.58
2018-08-18T03:10:33.971Z,17.43
2018-08-18T03:13:03.601Z,17.30
2018-08-18T03:16:12.272Z,17.27
2018-08-18T03:18:56.880Z,17.22
2018-08-18T03:21:31.727Z,17.12
2018-08-18T03:24:12.282Z,17.16
2018-08-18T03:26:49.446Z,17.19
2018-08-18T03:29:19.196Z,17.13
2018-08-18T03:31:48.481Z,17.14
2018-08-18T03:34:17.918Z,17.19
2018-08-18T03:36:49.359Z,17.32
2018-08-18T03:39:27.336Z,17.45
2018-08-18T03:42:01.561Z,17.53
2018-08-18T03:44:31.030Z,17.59
2018-08-18T03:47:00.071Z,17.64
2018-08-18T03:49:29.421Z,17.74
2018-08-18T03:51:59.399Z,17.82
2018-08-18T03:54:28.366Z,17.99
2018-08-18T03:56:57.171Z,18.20
2018-08-18T03:59:26.204Z,18.42
2018-08-18T04:01:59.694Z,18.65
2018-08-18T04:04:31.684Z,18.65
2018-08-18T04:07:01.703Z,18.68
2018-08-18T04:09:36.521Z,18.60
2018-08-18T04:12:07.832Z,18.36
2018-08-18T04:14:39.369Z,18.15
2018-08-18T04:17:39.236Z,18.48
2018-08-18T04:20:08.624Z,19.15
2018-08-18T04:22:38.528Z,19.91
2018-08-18T04:25:07.660Z,20.75
2018-08-18T04:27:42.752Z,21.55
2018-08-18T04:30:17.471Z,22.38
2018-08-18T04:32:53.992Z,23.12
2018-08-18T04:35:24.121Z,23.62
2018-08-18T04:37:53.897Z,24.10
2018-08-18T04:40:23.419Z,24.60
2018-08-18T04:42:52.280Z,24.66
2018-08-18T04:45:22.443Z,25.01
2018-08-18T04:47:51.345Z,25.40
2018-08-18T04:50:21.224Z,25.48
2018-08-18T04:52:51.767Z,25.28
2018-08-18T04:55:21.046Z,24.76
2018-08-18T04:57:50.028Z,24.33
2018-08-18T05:00:19.062Z,23.50
2018-08-18T05:02:55.010Z,22.03
2018-08-18T05:05:26.951Z,21.65
2018-08-18T05:07:56.782Z,21.05
2018-08-18T05:10:25.668Z,20.85
2018-08-18T05:12:54.663Z,21.19
2018-08-18T05:15:24.319Z,21.87
2018-08-18T05:17:53.339Z,22.13
2018-08-18T05:20:24.276Z,23.09
2018-08-18T05:22:54.095Z,23.84
2018-08-18T05:25:29.106Z,24.90
2018-08-18T05:27:59.227Z,25.77
2018-08-18T05:30:28.214Z,26.50
2018-08-18T05:32:57.275Z,27.44
2018-08-18T05:35:26.406Z,28.25
2018-08-18T05:37:55.247Z,28.79
2018-08-18T05:40:24.257Z,29.08
2018-08-18T05:42:53.286Z,29.42
2018-08-18T05:45:30.428Z,28.59
2018-08-18T05:47:59.443Z,29.37
2018-08-18T05:50:29.475Z,30.12
2018-08-18T05:53:24.321Z,30.15
2018-08-18T05:55:53.099Z,30.51
2018-08-18T05:58:22.606Z,31.03
2018-08-18T06:01:27.324Z,31.69
2018-08-18T06:04:01.183Z,32.60
2018-08-18T06:06:30.187Z,32.97
2018-08-18T06:08:59.556Z,33.08
2018-08-18T06:11:29.447Z,33.42
2018-08-18T06:13:59.925Z,33.40
2018-08-18T06:16:29.095Z,32.31
2018-08-18T06:18:57.918Z,32.73
2018-08-18T06:21:27.119Z,32.91
2018-08-18T06:23:56.640Z,33.47
2018-08-18T06:26:27.031Z,33.26
2018-08-18T06:28:56.481Z,33.90
2018-08-18T06:31:25.418Z,34.15
2018-08-18T06:33:54.531Z,34.59
2018-08-18T06:36:23.884Z,34.02
2018-08-18T06:38:53.661Z,34.20
2018-08-18T06:41:23.114Z,34.23
2018-08-18T06:43:52.092Z,34.71
2018-08-18T06:46:21.542Z,35.00
2018-08-18T06:48:51.685Z,34.20
2018-08-18T06:51:21.103Z,33.82
2018-08-18T06:53:50.291Z,34.63
2018-08-18T06:56:19.902Z,34.80
2018-08-18T06:58:50.238Z,34.85
2018-08-18T07:01:18.953Z,35.12
2018-08-18T07:03:48.239Z,34.97
2018-08-18T07:06:18.127Z,35.16
2018-08-18T07:08:52.988Z,34.16
2018-08-18T07:11:22.107Z,34.73
2018-08-18T07:13:50.852Z,35.16
2018-08-18T07:16:19.546Z,34.61
2018-08-18T07:18:48.268Z,34.68
2018-08-18T07:21:17.043Z,34.30
2018-08-18T07:23:45.766Z,34.78
2018-08-18T07:26:14.543Z,33.71
2018-08-18T07:28:43.451Z,34.33
2018-08-18T07:31:12.176Z,33.81
2018-08-18T07:33:41.089Z,34.58
2018-08-18T07:36:09.706Z,34.97
2018-08-18T07:38:38.468Z,35.34
2018-08-18T07:41:07.683Z,35.38
2018-08-18T07:43:36.334Z,35.34
2018-08-18T07:46:07.391Z,35.98
2018-08-18T07:48:36.502Z,36.26
2018-08-18T07:51:05.290Z,35.58
2018-08-18T07:53:34.093Z,34.63
2018-08-18T07:56:02.876Z,33.96
2018-08-18T07:58:31.622Z,33.62
2018-08-18T08:01:00.874Z,32.75
2018-08-18T08:03:29.636Z,33.06
2018-08-18T08:05:58.390Z,33.22
2018-08-18T08:08:34.812Z,33.74
2018-08-18T08:11:08.924Z,33.88
2018-08-18T08:13:38.123Z,34.60
2018-08-18T08:16:06.859Z,34.25
2018-08-18T08:18:36.491Z,34.63
2018-08-18T08:21:06.114Z,33.38
2018-08-18T08:23:35.203Z,33.59
2018-08-18T08:26:04.199Z,34.04
2018-08-18T08:28:33.249Z,33.06
2018-08-18T08:31:02.606Z,31.93
2018-08-18T08:36:08.602Z,31.34
2018-08-18T08:38:50.089Z,31.45
2018-08-18T08:41:19.135Z,30.91
2018-08-18T08:43:49.187Z,30.95
2018-08-18T08:46:19.205Z,31.31
2018-08-18T08:48:55.203Z,30.30
2018-08-18T08:51:24.787Z,30.54
2018-08-18T08:53:55.766Z,30.26
2018-08-18T08:56:44.984Z,30.55
2018-08-18T08:59:14.055Z,30.42
2018-08-18T09:01:43.286Z,29.88
2018-08-18T09:04:12.007Z,29.08
2018-08-18T09:06:45.842Z,28.94
2018-08-18T09:09:15.694Z,28.95
2018-08-18T09:11:44.779Z,28.77
2018-08-18T09:14:13.550Z,28.30
2018-08-18T09:16:43.210Z,28.40
2018-08-18T09:19:12.178Z,28.65
2018-08-18T09:21:46.331Z,28.61
2018-08-18T09:24:16.103Z,28.55
2018-08-18T09:26:58.675Z,28.41
2018-08-18T09:29:29.335Z,28.76
2018-08-18T09:31:58.762Z,28.99
2018-08-18T09:34:28.410Z,28.95
2018-08-18T09:36:57.556Z,29.28
2018-08-18T09:39:33.859Z,29.98
2018-08-18T09:42:05.427Z,30.50
2018-08-18T09:44:37.298Z,30.51
2018-08-18T09:47:06.764Z,30.26
2018-08-18T09:49:35.633Z,30.12
2018-08-18T09:52:04.880Z,30.24
2018-08-18T09:54:34.357Z,30.45
2018-08-18T09:57:04.157Z,30.09
2018-08-18T09:59:33.399Z,30.33
2018-08-18T10:02:02.520Z,29.88
2018-08-18T10:04:31.316Z,29.43
2018-08-18T10:07:00.157Z,29.37
2018-08-18T10:09:28.895Z,29.13
2018-08-18T10:11:57.827Z,29.11
2018-08-18T10:14:26.754Z,28.73
2018-08-18T10:16:55.907Z,28.78
2018-08-18T10:19:25.316Z,28.73
2018-08-18T10:21:55.167Z,28.96
2018-08-18T10:24:24.631Z,28.87
2018-08-18T10:26:58.825Z,28.97
2018-08-18T10:29:27.546Z,29.06
2018-08-18T10:31:58.488Z,28.63
2018-08-18T10:34:28.786Z,28.96
2018-08-18T10:37:03.022Z,28.84
2018-08-18T10:39:32.626Z,28.86
2018-08-18T10:42:09.202Z,29.22
2018-08-18T10:44:38.246Z,29.14
2018-08-18T10:47:11.585Z,29.10
2018-08-18T10:49:51.670Z,29.03
2018-08-18T10:52:32.623Z,28.53
2018-08-18T10:55:04.131Z,28.89
2018-08-18T10:57:44.942Z,28.63
2018-08-18T11:00:15.660Z,29.41
2018-08-18T11:02:46.336Z,29.72
2018-08-18T11:05:15.848Z,29.49
2018-08-18T11:07:50.590Z,29.33
2018-08-18T11:10:20.057Z,29.13
2018-08-18T11:12:48.871Z,29.03
2018-08-18T11:15:17.782Z,28.60
2018-08-18T11:17:46.836Z,28.46
2018-08-18T11:20:25.270Z,28.57
2018-08-18T11:23:11.860Z,28.28
2018-08-18T11:25:46.042Z,28.08
2018-08-18T11:28:15.843Z,28.17
2018-08-18T11:30:44.776Z,28.25
2018-08-18T11:33:45.847Z,28.57
2018-08-18T11:36:15.408Z,28.56
2018-08-18T11:38:44.438Z,28.40
2018-08-18T11:41:14.183Z,28.28
2018-08-18T11:43:46.827Z,28.09
2018-08-18T11:46:16.027Z,28.19
2018-08-18T11:48:45.214Z,28.62
2018-08-18T11:51:14.215Z,28.52
2018-08-18T11:53:56.869Z,28.78
2018-08-18T11:56:25.925Z,29.23
2018-08-18T11:59:07.894Z,29.23
2018-08-18T12:01:38.371Z,28.74
2018-08-18T12:04:07.573Z,28.74
2018-08-18T12:06:42.165Z,28.61
2018-08-18T12:09:12.080Z,28.74
2018-08-18T12:11:42.598Z,28.97
2018-08-18T12:14:11.658Z,29.18
2018-08-18T12:16:40.654Z,29.49
2018-08-18T12:19:09.331Z,29.44
2018-08-18T12:21:45.339Z,29.52
2018-08-18T12:24:17.853Z,29.34
2018-08-18T12:26:57.485Z,29.10
2018-08-18T12:29:26.922Z,28.91
2018-08-18T12:31:55.577Z,28.70
2018-08-18T12:34:24.515Z,28.40
2018-08-18T12:36:53.466Z,28.66
2018-08-18T12:39:22.862Z,28.74
2018-08-18T12:41:51.906Z,28.71
2018-08-18T12:44:26.323Z,28.68
2018-08-18T12:46:55.590Z,29.00
2018-08-18T12:49:26.008Z,29.01
2018-08-18T12:51:55.163Z,29.42
2018-08-18T12:54:24.754Z,29.54
2018-08-18T12:56:54.299Z,29.40
2018-08-18T12:59:23.320Z,28.97
2018-08-18T13:01:52.260Z,28.97
2018-08-18T13:04:22.165Z,28.93
2018-08-18T13:06:53.303Z,29.00
2018-08-18T13:09:24.254Z,28.91
2018-08-18T13:11:54.637Z,28.85
2018-08-18T13:14:27.141Z,28.63
2018-08-18T13:16:55.919Z,28.58
2018-08-18T13:19:26.671Z,28.66
2018-08-18T13:21:55.648Z,28.49
2018-08-18T13:24:24.426Z,28.56
2018-08-18T13:26:53.491Z,28.39
2018-08-18T13:29:22.316Z,28.43
2018-08-18T13:31:51.445Z,28.51
2018-08-18T13:34:20.263Z,28.66
2018-08-18T13:36:49.297Z,28.76
2018-08-18T13:39:19.647Z,28.97
2018-08-18T13:41:49.596Z,28.88
2018-08-18T13:44:26.971Z,28.73
2018-08-18T13:46:55.930Z,28.49
2018-08-18T13:49:25.812Z,28.17
2018-08-18T13:51:54.546Z,28.17
2018-08-18T13:54:23.348Z,28.39
2018-08-18T13:56:52.194Z,28.56
2018-08-18T13:59:35.799Z,28.57
2018-08-18T14:02:04.631Z,28.63
2018-08-18T14:04:33.429Z,28.69
2018-08-18T14:07:02.634Z,28.45
2018-08-18T14:09:31.694Z,28.45
2018-08-18T14:12:06.548Z,28.58
2018-08-18T14:14:36.067Z,28.63
2018-08-18T14:17:05.574Z,28.54
2018-08-18T14:19:35.189Z,28.58
2018-08-18T14:22:08.462Z,28.56
2018-08-18T14:24:38.615Z,28.53
2018-08-18T14:27:16.595Z,28.57
2018-08-18T14:29:46.152Z,28.53
2018-08-18T14:32:20.230Z,28.58
2018-08-18T14:34:55.303Z,28.49
2018-08-18T14:37:24.971Z,28.43
2018-08-18T14:39:54.273Z,28.31
2018-08-18T14:42:23.477Z,28.35
2018-08-18T14:44:53.380Z,28.42
2018-08-18T14:47:22.247Z,28.47
2018-08-18T14:49:53.850Z,28.50
2018-08-18T14:52:22.623Z,28.34
2018-08-18T14:54:51.297Z,28.21
2018-08-18T14:57:20.236Z,28.13
2018-08-18T14:59:49.031Z,28.27
2018-08-18T15:02:17.950Z,28.16
2018-08-18T15:04:47.150Z,28.08
2018-08-18T15:07:16.076Z,27.89
2018-08-18T15:09:45.970Z,27.75
2018-08-18T15:12:15.302Z,27.92
2018-08-18T15:14:44.974Z,28.03
2018-08-18T15:17:13.679Z,27.99
2018-08-18T15:19:42.421Z,27.92
2018-08-18T15:22:12.708Z,27.80
2018-08-18T15:24:41.805Z,27.74
2018-08-18T15:27:10.922Z,27.71
2018-08-18T15:29:39.668Z,27.66
2018-08-18T15:32:09.139Z,27.77
2018-08-18T15:34:38.316Z,27.75
2018-08-18T15:37:08.195Z,27.87
2018-08-18T15:39:36.920Z,27.81
2018-08-18T15:42:05.750Z,27.71
2018-08-18T15:44:37.822Z,27.44
2018-08-18T15:47:06.596Z,27.35
2018-08-18T15:49:35.363Z,27.34
2018-08-18T15:52:04.131Z,27.29
2018-08-18T15:54:33.118Z,27.20
2018-08-18T15:57:01.895Z,27.16
2018-08-18T15:59:30.523Z,27.07
2018-08-18T16:01:59.257Z,27.05
2018-08-18T16:04:28.102Z,27.03
2018-08-18T16:06:56.972Z,27.13
2018-08-18T16:09:25.620Z,27.09
2018-08-18T16:11:54.325Z,26.98
2018-08-18T16:14:23.078Z,27.04
2018-08-18T16:17:00.203Z,26.95
2018-08-18T16:19:31.819Z,26.86
2018-08-18T16:22:01.100Z,26.84
2018-08-18T16:24:39.560Z,26.75
2018-08-18T16:27:08.607Z,26.83
2018-08-18T16:29:37.998Z,26.79
2018-08-18T16:32:18.964Z,26.84
2018-08-18T16:34:48.969Z,26.83
2018-08-18T16:37:17.660Z,26.70
2018-08-18T16:39:46.583Z,26.68
2018-08-18T16:42:15.434Z,26.65
2018-08-18T16:44:44.098Z,26.63
2018-08-18T16:47:12.851Z,26.59
2018-08-18T16:49:41.535Z,26.64
2018-08-18T16:52:10.327Z,26.52
2018-08-18T16:54:39.827Z,26.53
2018-08-18T16:57:08.886Z,26.40
2018-08-18T16:59:38.499Z,26.39
2018-08-18T17:02:13.611Z,26.36
2018-08-18T17:04:42.535Z,26.26
2018-08-18T17:07:16.597Z,26.25
2018-08-18T17:09:45.434Z,26.20
2018-08-18T17:12:22.374Z,26.13
2018-08-18T17:14:51.119Z,26.07
2018-08-18T17:17:21.928Z,26.01
2018-08-18T17:19:50.692Z,25.96
2018-08-18T17:22:19.558Z,25.94
2018-08-18T17:24:48.427Z,25.93
2018-08-18T17:27:17.208Z,25.89
2018-08-18T17:29:47.622Z,25.79
2018-08-18T17:32:16.291Z,25.71
2018-08-18T17:34:45.334Z,25.72
2018-08-18T17:37:14.219Z,25.70
2018-08-18T17:39:42.958Z,25.63
2018-08-18T17:42:11.707Z,25.61
2018-08-18T17:44:40.386Z,25.62
2018-08-18T17:47:10.402Z,25.53
2018-08-18T17:50:13.568Z,25.53
2018-08-18T17:52:42.610Z,25.48
2018-08-18T17:55:16.291Z,25.44
2018-08-18T17:57:45.059Z,25.39
2018-08-18T18:00:16.894Z,25.33
2018-08-18T18:02:51.486Z,25.33
2018-08-18T18:05:22.666Z,25.25
2018-08-18T18:07:55.314Z,25.20
2018-08-18T18:10:27.018Z,25.10
2018-08-18T18:12:55.774Z,25.00
2018-08-18T18:15:28.086Z,24.94
2018-08-18T18:17:56.913Z,24.87
2018-08-18T18:20:28.738Z,24.74
2018-08-18T18:22:57.793Z,24.70
2018-08-18T18:25:26.493Z,24.65
2018-08-18T18:27:55.292Z,24.57
2018-08-18T18:30:27.555Z,24.57
2018-08-18T18:32:57.156Z,24.47
2018-08-18T18:35:26.199Z,24.45
2018-08-18T18:37:58.451Z,24.44
2018-08-18T18:40:27.242Z,24.42
2018-08-18T18:42:56.010Z,24.40
2018-08-18T18:45:26.095Z,24.30
2018-08-18T18:47:54.839Z,24.28
2018-08-18T18:50:23.601Z,24.23
2018-08-18T18:52:52.322Z,24.23
2018-08-18T18:55:22.464Z,24.19
2018-08-18T18:58:03.277Z,24.12
2018-08-18T19:00:34.059Z,24.13
2018-08-18T19:03:03.222Z,24.14
2018-08-18T19:05:33.238Z,24.14
2018-08-18T19:08:21.570Z,24.12
2018-08-18T19:10:50.577Z,24.06
2018-08-18T19:13:20.107Z,24.06
2018-08-18T19:15:49.126Z,24.06
2018-08-18T19:18:18.163Z,23.98
2018-08-18T19:20:47.115Z,23.92
2018-08-18T19:23:19.947Z,23.87
2018-08-18T19:25:50.872Z,23.84
2018-08-18T19:28:22.508Z,23.97
2018-08-18T19:30:52.094Z,24.01
2018-08-18T19:33:21.413Z,24.01
2018-08-18T19:35:52.054Z,23.89
2018-08-18T19:38:21.963Z,23.84
2018-08-18T19:40:54.334Z,23.70
2018-08-18T19:43:26.413Z,23.62
2018-08-18T19:45:56.360Z,23.60
2018-08-18T19:48:27.599Z,23.61
2018-08-18T19:51:01.641Z,23.62
2018-08-18T19:53:31.884Z,23.64
2018-08-18T19:56:01.519Z,23.63
2018-08-18T19:58:30.719Z,23.58
2018-08-18T20:00:59.860Z,23.54
2018-08-18T20:03:29.020Z,23.51
2018-08-18T20:05:58.158Z,23.50
2018-08-18T20:08:28.000Z,23.43
2018-08-18T20:10:58.340Z,23.43
2018-08-18T20:13:28.707Z,23.45
2018-08-18T20:16:00.014Z,23.36
2018-08-18T20:18:29.494Z,23.46
2018-08-18T20:20:59.332Z,23.36
2018-08-18T20:23:28.130Z,23.25
2018-08-18T20:25:57.367Z,23.13
2018-08-18T20:28:26.430Z,23.01
2018-08-18T20:30:55.531Z,22.90
2018-08-18T20:33:24.512Z,22.86
2018-08-18T20:35:53.945Z,22.82
2018-08-18T20:38:22.987Z,22.73
2018-08-18T20:40:52.344Z,22.66
2018-08-18T20:43:21.296Z,22.53
2018-08-18T20:45:50.712Z,22.48
2018-08-18T20:48:22.445Z,22.45
2018-08-18T20:50:51.867Z,22.39
2018-08-18T20:53:21.499Z,22.34
2018-08-18T20:56:03.140Z,22.33
2018-08-18T20:58:35.102Z,22.30
2018-08-18T21:01:04.387Z,22.21
2018-08-18T21:03:47.039Z,22.13
2018-08-18T21:06:16.986Z,22.08
2018-08-18T21:08:46.059Z,22.03
2018-08-18T21:11:15.139Z,21.95
2018-08-18T21:13:47.369Z,21.98
2018-08-18T21:16:16.891Z,22.09
2018-08-18T21:18:45.819Z,21.94
2018-08-18T21:21:32.427Z,21.92
2018-08-18T21:24:01.319Z,21.86
2018-08-18T21:26:30.513Z,21.81
2018-08-18T21:28:59.664Z,21.73
2018-08-18T21:31:34.731Z,21.72
2018-08-18T21:34:04.899Z,21.73
2018-08-18T21:36:34.323Z,21.72
2018-08-18T21:39:06.863Z,21.67
2018-08-18T21:41:39.554Z,21.50
2018-08-18T21:44:10.246Z,21.47
2018-08-18T21:46:39.686Z,21.46
2018-08-18T21:49:08.914Z,21.38
2018-08-18T21:51:37.794Z,21.32
2018-08-18T21:54:06.863Z,21.25
2018-08-18T21:56:38.558Z,21.25
2018-08-18T21:59:09.051Z,21.27
2018-08-18T22:01:38.079Z,21.28
2018-08-18T22:04:07.582Z,21.30
2018-08-18T22:06:36.555Z,21.30
2018-08-18T22:09:19.949Z,21.18
2018-08-18T22:11:48.826Z,21.08
2018-08-18T22:14:18.524Z,20.97
2018-08-18T22:16:55.076Z,20.93
2018-08-18T22:19:23.969Z,20.94
2018-08-18T22:21:52.913Z,20.94
2018-08-18T22:24:23.169Z,20.97
2018-08-18T22:26:52.374Z,21.07
2018-08-18T22:29:26.206Z,21.09
2018-08-18T22:31:55.482Z,20.96
2018-08-18T22:34:24.475Z,20.91
2018-08-18T22:37:00.949Z,20.85
2018-08-18T22:39:29.954Z,20.81
2018-08-18T22:41:59.553Z,20.84
2018-08-18T22:44:29.003Z,20.85
2018-08-18T22:46:58.018Z,20.93
2018-08-18T22:49:27.230Z,20.95
2018-08-18T22:51:56.198Z,20.83
2018-08-18T22:54:25.473Z,20.76
2018-08-18T22:56:59.683Z,20.83
2018-08-18T22:59:28.659Z,20.68
2018-08-18T23:01:57.440Z,20.65
2018-08-18T23:04:33.980Z,20.60
2018-08-18T23:07:04.534Z,20.59
2018-08-18T23:09:33.307Z,20.52
2018-08-18T23:12:04.246Z,20.44
2018-08-18T23:14:34.813Z,20.48
2018-08-18T23:17:03.939Z,20.55
2018-08-18T23:19:34.235Z,20.53
2018-08-18T23:22:03.518Z,20.59
2018-08-18T23:24:34.854Z,20.47
2018-08-18T23:27:04.120Z,20.47
2018-08-18T23:29:32.968Z,20.53
2018-08-18T23:32:13.365Z,20.49
2018-08-18T23:34:42.231Z,20.45
2018-08-18T23:37:15.723Z,20.45
2018-08-18T23:39:45.232Z,20.44
2018-08-18T23:42:16.095Z,20.27
2018-08-18T23:44:45.240Z,20.20
2018-08-18T23:47:14.157Z,20.15
2018-08-18T23:49:44.118Z,20.07
2018-08-18T23:52:13.723Z,20.09
2018-08-18T23:54:42.462Z,20.15
2018-08-18T23:57:11.817Z,20.10
2018-08-18T23:59:41.390Z,20.08
